Time;durP1;ratioP1;P1;durP2;ratioP2;P2;SDS_P1;SDS_P2;PMS_P1;PMS_P2;Temp;Humidity;BMP_temperature;BMP_pressure;BME280_temperature;BME280_humidity;BME280_pressure;Samples;Min_cycle;Max_cycle;Signal;HPM_P1;HPM_P2
2023/08/25 00:02:21;;;;;;;1.40;0.80;;;19.40;99.90;;;;;;5073594;28;20280;-72
2023/08/25 00:04:47;;;;;;;1.00;1.00;;;19.60;99.90;;;;;;5073361;28;20539;-72
2023/08/25 00:07:13;;;;;;;0.93;0.93;;;;;;;;;;5073697;28;20254;-72
2023/08/25 00:09:38;;;;;;;1.20;1.10;;;19.60;99.90;;;;;;5073675;28;20528;-71
2023/08/25 00:12:05;;;;;;;0.83;0.83;;;19.60;99.90;;;;;;5073575;28;20426;-71
2023/08/25 00:14:31;;;;;;;0.40;0.40;;;19.80;99.90;;;;;;5073300;28;20180;-72
2023/08/25 00:16:56;;;;;;;2.27;2.10;;;19.70;99.90;;;;;;5073799;28;20486;-72
2023/08/25 00:19:22;;;;;;;1.23;1.00;;;;;;;;;;5073369;28;20177;-72
2023/08/25 00:21:48;;;;;;;5.83;1.33;;;19.70;99.90;;;;;;5073316;28;20198;-72
2023/08/25 00:24:15;;;;;;;1.03;0.90;;;19.80;99.90;;;;;;5073254;28;20455;-72
2023/08/25 00:26:40;;;;;;;1.90;1.43;;;19.80;99.90;;;;;;5073496;28;20166;-71
2023/08/25 00:29:07;;;;;;;1.53;0.90;;;;;;;;;;5073462;28;20407;-72
2023/08/25 00:31:33;;;;;;;1.40;1.30;;;;;;;;;;5073249;28;20197;-72
2023/08/25 00:33:58;;;;;;;1.90;1.07;;;19.90;99.90;;;;;;5073123;28;20760;-71
2023/08/25 00:36:24;;;;;;;2.77;1.50;;;19.90;99.90;;;;;;5073425;28;20490;-71
2023/08/25 00:38:51;;;;;;;1.57;1.23;;;19.90;99.90;;;;;;5073179;28;20635;-71
2023/08/25 00:41:17;;;;;;;0.90;0.80;;;19.90;99.90;;;;;;5073342;28;20504;-71
2023/08/25 00:43:43;;;;;;;1.83;0.70;;;19.90;99.90;;;;;;5073002;28;20554;-72
2023/08/25 00:46:10;;;;;;;1.77;1.20;;;20.00;99.90;;;;;;5073028;28;20168;-72
2023/08/25 00:48:37;;;;;;;0.60;0.60;;;19.70;99.90;;;;;;5073003;28;20523;-71
2023/08/25 00:51:04;;;;;;;1.80;1.40;;;19.60;99.90;;;;;;5073213;28;20492;-71
2023/08/25 00:53:31;;;;;;;1.37;0.80;;;19.70;99.90;;;;;;5073147;28;20467;-72
2023/08/25 00:55:57;;;;;;;3.20;2.70;;;;;;;;;;5073117;28;20404;-72
2023/08/25 00:58:23;;;;;;;2.40;0.80;;;;;;;;;;5073154;28;20403;-72
2023/08/25 01:00:49;;;;;;;0.93;0.93;;;19.70;99.90;;;;;;5072834;28;20412;-72
2023/08/25 01:03:16;;;;;;;1.73;0.90;;;;;;;;;;5072640;28;20524;-73
2023/08/25 01:05:42;;;;;;;1.00;0.70;;;19.80;99.90;;;;;;5071301;28;20426;-72
2023/08/25 01:08:08;;;;;;;1.40;1.30;;;19.80;99.90;;;;;;5072721;28;20408;-73
2023/08/25 01:10:50;;;;;;;0.67;0.67;;;19.80;99.90;;;;;;5075172;28;20569;-73
2023/08/25 01:13:23;;;;;;;1.10;1.07;;;19.70;99.90;;;;;;5076764;28;20414;-72
2023/08/25 01:15:52;;;;;;;1.83;0.60;;;19.80;99.90;;;;;;5076777;28;20422;-71
2023/08/25 01:18:23;;;;;;;1.80;1.30;;;19.90;99.90;;;;;;5076604;28;20416;-72
2023/08/25 01:20:51;;;;;;;0.53;0.53;;;19.50;99.90;;;;;;5076837;28;20445;-73
2023/08/25 01:23:35;;;;;;;1.00;0.90;;;19.70;99.90;;;;;;5076468;28;20453;-72
2023/08/25 01:26:02;;;;;;;0.80;0.77;;;19.60;99.90;;;;;;5076456;28;20409;-71
2023/08/25 01:28:28;;;;;;;1.90;1.20;;;;;;;;;;5076618;28;20404;-73
2023/08/25 01:30:58;;;;;;;2.77;1.07;;;19.80;99.90;;;;;;5076839;28;20825;-72
2023/08/25 01:33:26;;;;;;;1.17;1.00;;;19.60;99.90;;;;;;5076737;28;20489;-72
2023/08/25 01:35:57;;;;;;;0.63;0.60;;;19.60;99.90;;;;;;5076124;28;20784;-72
2023/08/25 01:39:07;;;;;;;5.83;1.80;;;19.60;99.90;;;;;;5076354;28;20815;-73
2023/08/25 01:42:08;;;;;;;0.70;0.70;;;19.60;99.90;;;;;;5076213;28;20470;-72
2023/08/25 01:44:36;;;;;;;4.63;0.67;;;19.70;99.90;;;;;;5075529;28;20459;-72
2023/08/25 01:47:05;;;;;;;1.50;1.30;;;19.60;99.90;;;;;;5076198;28;20411;-72
2023/08/25 01:49:31;;;;;;;0.63;0.63;;;19.60;99.90;;;;;;5075938;28;20422;-72
2023/08/25 01:51:59;;;;;;;5.63;1.63;;;19.50;99.90;;;;;;5076161;28;20423;-72
2023/08/25 01:54:25;;;;;;;4.20;1.77;;;19.50;99.90;;;;;;5075901;28;20404;-72
2023/08/25 01:56:50;;;;;;;1.80;1.70;;;19.50;99.90;;;;;;5076167;28;20411;-72
2023/08/25 01:59:16;;;;;;;0.67;0.67;;;19.50;99.90;;;;;;5076166;28;20396;-73
2023/08/25 02:01:42;;;;;;;1.00;0.90;;;19.60;99.90;;;;;;5075955;28;20190;-71
2023/08/25 02:04:07;;;;;;;2.87;1.47;;;19.60;99.90;;;;;;5075733;28;20205;-73
2023/08/25 02:06:33;;;;;;;0.97;0.90;;;19.60;99.90;;;;;;5076100;28;20162;-72
2023/08/25 02:08:59;;;;;;;3.50;3.07;;;19.60;99.90;;;;;;5075838;28;20169;-72
2023/08/25 02:11:25;;;;;;;2.27;2.13;;;19.70;99.90;;;;;;5075814;28;20275;-72
2023/08/25 02:13:51;;;;;;;1.70;1.60;;;;;;;;;;5075954;28;20165;-72
2023/08/25 02:16:17;;;;;;;0.90;0.80;;;;;;;;;;5075466;28;20176;-71
2023/08/25 02:18:42;;;;;;;0.80;0.80;;;19.70;99.90;;;;;;5075557;28;20414;-72
2023/08/25 02:21:08;;;;;;;1.60;1.50;;;19.60;99.90;;;;;;5075600;28;20434;-73
2023/08/25 02:23:33;;;;;;;0.93;0.93;;;19.40;99.90;;;;;;5075424;28;20204;-73
2023/08/25 02:25:59;;;;;;;1.10;1.10;;;19.60;99.90;;;;;;5075291;28;20254;-73
2023/08/25 02:28:25;;;;;;;2.87;0.87;;;19.50;99.90;;;;;;5075405;28;20224;-73
2023/08/25 02:30:50;;;;;;;1.60;0.97;;;19.80;99.90;;;;;;5075538;28;20702;-71
2023/08/25 02:33:16;;;;;;;2.10;1.27;;;19.60;99.90;;;;;;5075444;28;20215;-71
2023/08/25 02:35:42;;;;;;;1.70;1.60;;;;;;;;;;5075239;28;20263;-73
2023/08/25 02:38:11;;;;;;;1.80;0.70;;;19.50;99.90;;;;;;5075379;28;20230;-72
2023/08/25 02:40:38;;;;;;;1.60;1.40;;;;;;;;;;5075271;28;20464;-73
2023/08/25 02:43:05;;;;;;;1.00;1.00;;;19.60;99.90;;;;;;5075115;28;20416;-71
2023/08/25 02:45:31;;;;;;;4.90;2.30;;;;;;;;;;5075083;28;20962;-72
2023/08/25 02:47:57;;;;;;;1.20;1.13;;;19.60;99.90;;;;;;5075232;28;20406;-72
2023/08/25 02:50:24;;;;;;;1.00;1.00;;;;;;;;;;5074886;28;20787;-71
2023/08/25 02:52:50;;;;;;;0.70;0.70;;;19.50;99.90;;;;;;5074860;28;20476;-72
2023/08/25 02:55:18;;;;;;;1.40;1.30;;;19.30;99.90;;;;;;5074768;28;20769;-72
2023/08/25 02:57:43;;;;;;;0.93;0.90;;;19.30;99.90;;;;;;5075068;28;20184;-71
2023/08/25 03:00:11;;;;;;;0.97;0.97;;;19.30;99.90;;;;;;5075026;28;20427;-72
2023/08/25 03:02:37;;;;;;;1.57;1.47;;;19.30;99.90;;;;;;5074711;28;20557;-71
2023/08/25 03:05:03;;;;;;;6.03;2.00;;;19.30;99.90;;;;;;5074616;28;20867;-72
2023/08/25 03:07:29;;;;;;;1.53;1.23;;;19.30;99.90;;;;;;5074168;28;20506;-71
2023/08/25 03:09:55;;;;;;;3.33;1.83;;;19.30;99.90;;;;;;5074657;28;20432;-72
2023/08/25 03:12:21;;;;;;;1.10;1.00;;;;;;;;;;5074409;28;20654;-72
2023/08/25 03:14:46;;;;;;;1.53;1.33;;;19.20;99.90;;;;;;5074415;28;20187;-71
2023/08/25 03:17:12;;;;;;;10.60;2.93;;;19.20;99.90;;;;;;5074610;28;20495;-71
2023/08/25 03:19:38;;;;;;;1.00;1.00;;;19.10;99.90;;;;;;5074358;28;20179;-72
2023/08/25 03:22:04;;;;;;;0.73;0.73;;;19.20;99.90;;;;;;5074489;28;20518;-72
2023/08/25 03:24:30;;;;;;;1.57;1.47;;;19.20;99.90;;;;;;5074078;28;20204;-72
2023/08/25 03:26:59;;;;;;;1.20;1.07;;;19.10;99.90;;;;;;5074394;28;20416;-72
2023/08/25 03:29:25;;;;;;;1.13;1.03;;;19.00;99.90;;;;;;5074377;28;20316;-72
2023/08/25 03:31:51;;;;;;;1.63;1.30;;;18.70;99.90;;;;;;5074131;28;20490;-72
2023/08/25 03:34:17;;;;;;;1.03;1.03;;;19.00;99.90;;;;;;5073465;28;20412;-72
2023/08/25 03:36:42;;;;;;;2.37;2.17;;;19.00;99.90;;;;;;5074074;28;20885;-72
2023/08/25 03:39:09;;;;;;;2.00;1.90;;;;;;;;;;5074155;28;20187;-73
2023/08/25 03:41:35;;;;;;;1.27;1.17;;;18.90;99.90;;;;;;5074035;28;20683;-72
2023/08/25 03:44:01;;;;;;;1.87;1.70;;;;;;;;;;5073767;28;20455;-73
2023/08/25 03:46:27;;;;;;;2.50;2.30;;;18.90;99.90;;;;;;5074261;28;20173;-71
2023/08/25 03:48:53;;;;;;;0.80;0.77;;;18.90;99.90;;;;;;5073709;28;20424;-71
2023/08/25 03:51:19;;;;;;;1.20;1.20;;;18.90;99.90;;;;;;5073931;28;20185;-72
2023/08/25 03:53:45;;;;;;;2.57;2.37;;;18.90;99.90;;;;;;5073702;28;20405;-71
2023/08/25 03:56:10;;;;;;;1.30;1.20;;;18.90;99.90;;;;;;5073713;28;20170;-72
2023/08/25 03:58:36;;;;;;;1.77;1.67;;;18.90;99.90;;;;;;5073902;28;20228;-71
2023/08/25 04:01:03;;;;;;;1.57;1.27;;;19.00;99.90;;;;;;5073594;28;20247;-72
2023/08/25 04:03:28;;;;;;;1.10;1.10;;;18.90;99.90;;;;;;5073566;28;20288;-72
2023/08/25 04:05:54;;;;;;;1.93;1.83;;;18.90;99.90;;;;;;5073481;28;20447;-72
2023/08/25 04:08:20;;;;;;;1.57;1.47;;;;;;;;;;5073698;28;20176;-72
2023/08/25 04:10:47;;;;;;;2.33;2.23;;;19.00;99.90;;;;;;5073624;28;20171;-72
2023/08/25 04:13:13;;;;;;;6.93;1.97;;;;;;;;;;5073580;28;20415;-71
2023/08/25 04:15:39;;;;;;;3.33;1.83;;;18.80;99.90;;;;;;5073271;28;20404;-71
2023/08/25 04:18:05;;;;;;;1.67;1.57;;;18.80;99.90;;;;;;5073594;28;20459;-71
2023/08/25 04:20:32;;;;;;;1.97;1.87;;;19.10;99.90;;;;;;5073502;28;20534;-72
2023/08/25 04:22:59;;;;;;;1.77;1.67;;;18.90;99.90;;;;;;5073329;28;20471;-72
2023/08/25 04:25:27;;;;;;;0.73;0.73;;;18.80;99.90;;;;;;5073139;28;20413;-73
2023/08/25 04:27:53;;;;;;;1.87;1.77;;;;;;;;;;5073519;28;20410;-71
2023/08/25 04:30:22;;;;;;;1.30;1.30;;;18.80;99.90;;;;;;5073450;28;20440;-73
2023/08/25 04:32:48;;;;;;;1.80;1.70;;;18.90;99.90;;;;;;5073203;28;20444;-72
2023/08/25 04:35:14;;;;;;;2.00;1.90;;;18.90;99.90;;;;;;5073118;28;20416;-71
2023/08/25 04:37:43;;;;;;;1.83;1.73;;;18.90;99.90;;;;;;5073139;28;20428;-72
2023/08/25 04:40:10;;;;;;;2.53;1.03;;;18.90;99.90;;;;;;5073392;28;20176;-71
2023/08/25 04:42:35;;;;;;;1.60;1.50;;;18.90;99.90;;;;;;5073047;28;20420;-71
2023/08/25 04:45:04;;;;;;;3.43;2.00;;;;;;;;;;5073920;28;21019;-72
2023/08/25 04:47:30;;;;;;;2.73;2.07;;;18.90;99.90;;;;;;5077353;28;20425;-71
2023/08/25 04:49:57;;;;;;;1.70;1.60;;;18.90;99.90;;;;;;5077201;28;20438;-72
2023/08/25 04:52:23;;;;;;;2.20;1.40;;;;;;;;;;5076973;28;20500;-72
2023/08/25 04:54:49;;;;;;;3.70;2.60;;;18.80;99.90;;;;;;5077245;28;20414;-73
2023/08/25 04:57:15;;;;;;;2.67;2.50;;;18.90;99.90;;;;;;5077272;28;20763;-72
2023/08/25 04:59:41;;;;;;;1.50;1.23;;;18.80;99.90;;;;;;5077090;28;20773;-72
2023/08/25 05:02:06;;;;;;;4.43;1.90;;;18.80;99.90;;;;;;5077119;28;20220;-71
2023/08/25 05:04:32;;;;;;;3.03;2.33;;;18.90;99.90;;;;;;5077079;28;20205;-71
2023/08/25 05:06:57;;;;;;;1.90;1.70;;;18.80;99.90;;;;;;5077028;28;20293;-72
2023/08/25 05:09:23;;;;;;;3.50;1.50;;;18.90;99.90;;;;;;5077171;28;20173;-72
2023/08/25 05:11:49;;;;;;;2.17;1.97;;;19.00;99.90;;;;;;5076866;28;20195;-72
2023/08/25 05:14:14;;;;;;;2.37;1.13;;;19.00;99.90;;;;;;5076875;28;20176;-72
2023/08/25 05:16:40;;;;;;;1.27;1.20;;;19.30;99.90;;;;;;5076774;28;20629;-72
2023/08/25 05:19:06;;;;;;;1.30;1.20;;;19.20;99.90;;;;;;5076770;28;20171;-71
2023/08/25 05:21:31;;;;;;;0.77;0.77;;;19.40;99.90;;;;;;5076702;28;20245;-71
2023/08/25 05:24:21;;;;;;;1.97;1.87;;;19.50;99.90;;;;;;5076545;28;20201;-72
2023/08/25 05:26:51;;;;;;;1.30;1.30;;;19.70;99.90;;;;;;5077006;28;20505;-72
2023/08/25 05:29:17;;;;;;;2.20;1.37;;;19.90;99.90;;;;;;5076495;28;20415;-72
2023/08/25 05:31:43;;;;;;;1.77;1.50;;;20.00;99.90;;;;;;5076339;28;20520;-72
2023/08/25 05:34:09;;;;;;;1.60;1.00;;;19.90;99.90;;;;;;5076207;28;20540;-71
2023/08/25 05:36:34;;;;;;;1.73;1.63;;;20.40;99.90;;;;;;5076586;28;20228;-73
2023/08/25 05:39:01;;;;;;;2.50;2.30;;;20.80;99.90;;;;;;5076249;28;20908;-72
2023/08/25 05:41:27;;;;;;;5.77;2.17;;;21.50;99.90;;;;;;5076312;28;20196;-72
2023/08/25 05:43:53;;;;;;;3.60;1.23;;;21.90;99.90;;;;;;5076247;28;20573;-72
2023/08/25 05:46:19;;;;;;;1.43;1.27;;;22.10;99.90;;;;;;5076286;28;20503;-72
2023/08/25 05:48:44;;;;;;;1.47;1.27;;;22.40;99.90;;;;;;5076087;28;20601;-71
2023/08/25 05:51:10;;;;;;;4.53;2.00;;;22.20;99.90;;;;;;5076269;28;20245;-73
2023/08/25 05:53:35;;;;;;;1.97;1.87;;;22.00;99.90;;;;;;5076037;28;20184;-72
2023/08/25 05:56:01;;;;;;;1.40;1.13;;;21.90;99.90;;;;;;5075481;28;20208;-73
2023/08/25 05:58:27;;;;;;;1.70;1.60;;;21.90;99.90;;;;;;5076039;28;20229;-73
2023/08/25 06:00:53;;;;;;;1.57;1.20;;;21.20;99.90;;;;;;5075896;28;20252;-72
2023/08/25 06:03:19;;;;;;;1.03;1.03;;;22.00;99.90;;;;;;5076027;28;20751;-72
2023/08/25 06:05:51;;;;;;;1.67;1.40;;;22.20;99.90;;;;;;5075967;28;20482;-72
2023/08/25 06:08:20;;;;;;;2.10;1.27;;;22.30;99.90;;;;;;5075926;28;20193;-73
2023/08/25 06:10:46;;;;;;;5.23;1.80;;;21.80;99.90;;;;;;5075908;28;20404;-72
2023/08/25 06:13:15;;;;;;;10.00;1.17;;;22.00;99.90;;;;;;5075702;28;20418;-72
2023/08/25 06:15:41;;;;;;;2.27;1.90;;;22.00;99.90;;;;;;5075713;28;20443;-71
2023/08/25 06:18:06;;;;;;;0.97;0.80;;;21.90;99.90;;;;;;5075726;28;20443;-73
2023/08/25 06:20:32;;;;;;;4.73;1.00;;;21.80;99.90;;;;;;5075765;28;20172;-73
2023/08/25 06:22:58;;;;;;;0.70;0.70;;;;;;;;;;5075395;28;20711;-71
2023/08/25 06:25:24;;;;;;;0.70;0.70;;;21.50;99.90;;;;;;5075278;28;20207;-73
2023/08/25 06:27:50;;;;;;;0.83;0.83;;;21.30;99.90;;;;;;5075574;28;20463;-71
2023/08/25 06:30:17;;;;;;;0.90;0.90;;;21.20;99.90;;;;;;5075590;28;20969;-72
2023/08/25 06:32:44;;;;;;;1.73;1.33;;;21.10;99.90;;;;;;5075286;28;20427;-72
2023/08/25 06:35:13;;;;;;;2.63;2.43;;;20.90;99.90;;;;;;5075079;28;20417;-71
2023/08/25 06:37:39;;;;;;;1.90;1.37;;;20.90;99.90;;;;;;5075250;28;20467;-72
2023/08/25 06:40:07;;;;;;;1.67;1.67;;;20.80;99.90;;;;;;5075474;28;20900;-73
2023/08/25 06:42:37;;;;;;;1.80;1.73;;;20.60;99.90;;;;;;5075128;28;20193;-71
2023/08/25 06:45:07;;;;;;;1.30;1.17;;;20.50;99.90;;;;;;5075028;28;20542;-71
2023/08/25 06:47:34;;;;;;;1.47;1.37;;;20.50;99.90;;;;;;5075257;28;20897;-71
2023/08/25 06:50:00;;;;;;;1.70;1.30;;;20.50;99.90;;;;;;5074824;28;20432;-73
2023/08/25 06:52:26;;;;;;;1.37;1.27;;;20.50;99.90;;;;;;5074948;28;20429;-72
2023/08/25 06:54:52;;;;;;;4.80;1.47;;;;;;;;;;5074618;28;20443;-71
2023/08/25 06:57:18;;;;;;;6.90;1.63;;;20.40;99.90;;;;;;5074977;28;20653;-73
2023/08/25 06:59:44;;;;;;;1.13;1.03;;;20.40;99.90;;;;;;5074910;28;20407;-72
2023/08/25 07:02:09;;;;;;;1.30;1.20;;;20.40;99.90;;;;;;5074489;28;20197;-72
2023/08/25 07:04:35;;;;;;;1.63;1.53;;;20.40;99.90;;;;;;5074522;28;20459;-72
2023/08/25 07:07:01;;;;;;;2.10;1.43;;;20.40;99.90;;;;;;5074256;28;20176;-72
2023/08/25 07:09:27;;;;;;;1.53;1.43;;;20.40;99.90;;;;;;5074473;28;20408;-73
2023/08/25 07:11:53;;;;;;;1.80;1.63;;;20.50;99.90;;;;;;5074501;28;20424;-73
2023/08/25 07:14:19;;;;;;;1.47;1.37;;;20.50;99.90;;;;;;5074290;28;20892;-71
2023/08/25 07:16:44;;;;;;;2.37;1.87;;;20.50;99.90;;;;;;5074570;28;20174;-72
2023/08/25 07:19:10;;;;;;;1.87;1.77;;;20.50;99.90;;;;;;5074419;28;20175;-73
2023/08/25 07:21:36;;;;;;;1.53;1.43;;;20.70;99.90;;;;;;5074208;28;20196;-71
2023/08/25 07:24:02;;;;;;;1.67;1.57;;;20.60;99.90;;;;;;5073914;28;20247;-72
2023/08/25 07:26:28;;;;;;;1.53;1.43;;;20.60;99.90;;;;;;5074687;28;20396;-72
2023/08/25 07:28:54;;;;;;;1.03;1.00;;;20.60;99.90;;;;;;5074479;28;20401;-72
2023/08/25 07:31:19;;;;;;;2.47;1.83;;;20.60;99.90;;;;;;5074321;28;20196;-71
2023/08/25 07:33:45;;;;;;;1.30;1.20;;;21.00;99.90;;;;;;5074190;28;20171;-73
2023/08/25 07:36:11;;;;;;;1.73;1.63;;;;;;;;;;5073988;28;20179;-73
2023/08/25 07:38:37;;;;;;;3.07;2.07;;;20.90;99.90;;;;;;5074183;28;20245;-72
2023/08/25 07:41:02;;;;;;;2.37;2.20;;;21.20;99.90;;;;;;5074063;28;20433;-72
2023/08/25 07:43:28;;;;;;;2.70;1.30;;;21.20;99.90;;;;;;5073934;28;20230;-73
2023/08/25 07:45:54;;;;;;;2.80;1.43;;;21.10;99.90;;;;;;5073708;28;20509;-71
2023/08/25 07:48:21;;;;;;;1.43;1.33;;;20.90;99.90;;;;;;5073847;28;20288;-72
2023/08/25 07:50:48;;;;;;;1.53;1.43;;;20.70;99.90;;;;;;5073533;28;20441;-71
2023/08/25 07:53:14;;;;;;;2.70;1.73;;;21.00;99.90;;;;;;5073853;28;20917;-72
2023/08/25 07:55:40;;;;;;;1.10;1.10;;;21.00;99.90;;;;;;5073815;28;20405;-73
2023/08/25 07:58:08;;;;;;;1.13;1.13;;;21.20;99.90;;;;;;5073781;28;20435;-72
2023/08/25 08:00:33;;;;;;;1.27;1.17;;;21.00;99.90;;;;;;5073783;28;20403;-73
2023/08/25 08:02:59;;;;;;;2.00;1.53;;;21.10;99.90;;;;;;5073586;28;20427;-71
2023/08/25 08:05:26;;;;;;;1.40;1.30;;;21.20;99.90;;;;;;5073647;28;20196;-72
2023/08/25 08:07:52;;;;;;;1.17;1.10;;;;;;;;;;5073533;28;20399;-73
2023/08/25 08:10:18;;;;;;;1.50;1.40;;;21.20;99.90;;;;;;5073724;28;20409;-72
2023/08/25 08:12:44;;;;;;;1.00;0.83;;;21.30;99.90;;;;;;5073470;28;20426;-72
2023/08/25 08:15:11;;;;;;;2.10;1.27;;;21.30;99.90;;;;;;5073344;28;20443;-73
2023/08/25 08:17:36;;;;;;;0.70;0.70;;;21.30;99.90;;;;;;5073502;28;20177;-73
2023/08/25 08:20:07;;;;;;;4.33;1.40;;;21.40;99.90;;;;;;5073322;28;20418;-71
2023/08/25 08:22:32;;;;;;;1.20;1.10;;;21.50;99.90;;;;;;5073499;28;20188;-72
2023/08/25 08:24:58;;;;;;;1.87;1.50;;;21.60;99.90;;;;;;5073126;28;20980;-73
2023/08/25 08:27:25;;;;;;;1.00;1.00;;;21.80;99.90;;;;;;5073503;28;20176;-71
2023/08/25 08:29:51;;;;;;;1.70;1.60;;;21.90;99.90;;;;;;5073521;28;20178;-71
2023/08/25 08:32:17;;;;;;;1.37;1.27;;;22.00;99.90;;;;;;5071941;28;20791;-73
2023/08/25 08:34:43;;;;;;;0.70;0.70;;;;;;;;;;5073289;28;20412;-72
2023/08/25 08:37:09;;;;;;;1.70;1.60;;;22.30;99.90;;;;;;5073290;28;20411;-73
2023/08/25 08:39:39;;;;;;;0.97;0.87;;;22.30;99.90;;;;;;5073433;28;20411;-72
2023/08/25 08:42:07;;;;;;;1.83;1.70;;;22.50;99.90;;;;;;5073347;28;20197;-73
2023/08/25 08:44:36;;;;;;;1.90;1.77;;;22.50;99.90;;;;;;5072948;28;20459;-72
2023/08/25 08:47:03;;;;;;;2.17;2.00;;;22.70;99.90;;;;;;5073241;28;20404;-73
2023/08/25 08:49:32;;;;;;;1.30;1.20;;;22.70;99.90;;;;;;5072976;28;20431;-72
2023/08/25 08:51:58;;;;;;;1.10;1.10;;;;;;;;;;5073179;28;20428;-72
2023/08/25 08:54:25;;;;;;;1.93;1.30;;;23.00;99.90;;;;;;5073028;28;20403;-71
2023/08/25 08:56:51;;;;;;;1.40;1.30;;;23.10;99.90;;;;;;5073243;28;20400;-73
2023/08/25 08:59:17;;;;;;;2.20;1.40;;;23.50;99.90;;;;;;5073275;28;20747;-71
2023/08/25 09:01:44;;;;;;;1.50;1.00;;;24.20;99.90;;;;;;5072907;28;20471;-72
2023/08/25 09:04:11;;;;;;;2.10;1.27;;;24.50;99.90;;;;;;5072794;28;20466;-73
2023/08/25 09:06:39;;;;;;;1.60;1.50;;;24.80;99.90;;;;;;5073214;28;20378;-73
2023/08/25 09:09:06;;;;;;;2.67;1.27;;;24.90;99.90;;;;;;5073028;28;20783;-71
2023/08/25 09:11:35;;;;;;;2.10;1.50;;;25.20;99.90;;;;;;5072815;28;20793;-72
2023/08/25 09:14:04;;;;;;;3.00;2.50;;;25.30;99.90;;;;;;5072766;28;20443;-73
2023/08/25 09:16:33;;;;;;;1.60;1.20;;;25.30;99.60;;;;;;5073083;28;20393;-73
2023/08/25 09:19:03;;;;;;;1.37;1.27;;;25.50;98.90;;;;;;5072921;28;20412;-71
2023/08/25 09:21:29;;;;;;;2.40;1.40;;;26.00;97.50;;;;;;5072939;28;20443;-72
2023/08/25 09:23:58;;;;;;;1.57;1.30;;;26.00;97.80;;;;;;5072693;28;21015;-73
2023/08/25 09:26:25;;;;;;;1.37;0.77;;;25.80;98.00;;;;;;5073227;28;20408;-71
2023/08/25 09:28:57;;;;;;;1.93;1.70;;;25.60;98.20;;;;;;5072848;28;20885;-73
2023/08/25 09:31:29;;;;;;;12.93;1.60;;;25.40;99.40;;;;;;5074172;28;20398;-73
2023/08/25 09:34:05;;;;;;;2.67;1.30;;;25.40;99.70;;;;;;5076350;28;20366;-71
2023/08/25 09:36:31;;;;;;;4.10;2.60;;;;;;;;;;5076582;28;20918;-72
2023/08/25 09:38:58;;;;;;;2.07;1.97;;;25.50;99.80;;;;;;5076505;28;20374;-72
2023/08/25 09:41:25;;;;;;;1.27;1.27;;;25.70;99.90;;;;;;5076681;28;20939;-72
2023/08/25 09:43:55;;;;;;;1.63;1.53;;;25.80;98.80;;;;;;5076226;28;20460;-72
2023/08/25 09:46:32;;;;;;;2.23;1.87;;;25.80;98.20;;;;;;5076328;28;20385;-72
2023/08/25 09:49:09;;;;;;;1.60;1.50;;;25.80;98.50;;;;;;5076109;28;20473;-73
2023/08/25 09:51:37;;;;;;;1.40;1.30;;;25.70;98.60;;;;;;5076341;28;20447;-73
2023/08/25 09:54:07;;;;;;;2.30;1.93;;;25.40;99.30;;;;;;5075962;28;20423;-72
2023/08/25 09:56:34;;;;;;;1.47;1.30;;;25.50;98.80;;;;;;5076183;28;20983;-71
2023/08/25 09:59:05;;;;;;;1.73;1.63;;;25.50;98.80;;;;;;5076171;28;20403;-74
2023/08/25 10:01:35;;;;;;;1.70;1.50;;;25.40;99.90;;;;;;5076018;28;20819;-73
2023/08/25 10:04:05;;;;;;;1.77;1.67;;;25.20;98.80;;;;;;5075714;28;20535;-73
2023/08/25 10:06:32;;;;;;;1.80;1.63;;;25.00;98.60;;;;;;5076180;28;20435;-73
2023/08/25 10:08:59;;;;;;;1.87;1.70;;;24.70;98.90;;;;;;5074678;28;20954;-73
2023/08/25 10:11:30;;;;;;;1.47;1.30;;;24.70;99.30;;;;;;5074494;28;20817;-73
2023/08/25 10:13:56;;;;;;;2.20;1.70;;;;;;;;;;5075611;28;20374;-73
2023/08/25 10:16:27;;;;;;;1.80;1.47;;;24.90;99.90;;;;;;5075692;28;20403;-73
2023/08/25 10:18:56;;;;;;;1.40;1.30;;;25.10;99.90;;;;;;5075873;28;20390;-73
2023/08/25 10:21:23;;;;;;;1.30;1.10;;;25.20;99.20;;;;;;5075541;28;20413;-72
2023/08/25 10:23:53;;;;;;;1.40;1.17;;;25.20;98.90;;;;;;5075647;28;20434;-72
2023/08/25 10:26:19;;;;;;;1.60;1.50;;;25.20;98.70;;;;;;5075746;28;20378;-74
2023/08/25 10:28:46;;;;;;;1.57;1.37;;;25.40;98.80;;;;;;5075472;28;20815;-71
2023/08/25 10:31:13;;;;;;;1.20;1.10;;;25.50;98.50;;;;;;5075333;28;20941;-73
2023/08/25 10:33:52;;;;;;;1.33;1.23;;;25.50;98.00;;;;;;5075496;28;20386;-72
2023/08/25 10:36:19;;;;;;;1.13;1.13;;;25.60;98.80;;;;;;5075342;28;20825;-72
2023/08/25 10:38:54;;;;;;;1.50;1.40;;;25.50;97.80;;;;;;5075501;28;20424;-73
2023/08/25 10:41:20;;;;;;;1.50;1.40;;;25.40;97.30;;;;;;5075192;28;20438;-72
2023/08/25 10:43:55;;;;;;;1.27;1.17;;;25.50;97.00;;;;;;5073935;28;20426;-73
2023/08/25 10:46:22;;;;;;;1.73;1.27;;;25.30;95.80;;;;;;5075217;28;20380;-73
2023/08/25 10:49:06;;;;;;;3.30;1.50;;;25.30;96.10;;;;;;5075058;28;20406;-73
2023/08/25 10:51:36;;;;;;;0.70;0.70;;;;;;;;;;5075131;28;20430;-72
2023/08/25 10:54:02;;;;;;;1.20;1.10;;;25.50;97.80;;;;;;5075013;28;20393;-73
2023/08/25 10:56:28;;;;;;;1.53;1.40;;;25.40;96.30;;;;;;5075012;28;20891;-72
2023/08/25 10:59:04;;;;;;;2.53;1.37;;;25.40;97.20;;;;;;5075304;28;20180;-72
2023/08/25 11:01:42;;;;;;;2.23;1.60;;;25.40;99.40;;;;;;5074849;28;20477;-72
2023/08/25 11:04:10;;;;;;;1.70;1.60;;;25.60;96.10;;;;;;5074710;28;20418;-73
2023/08/25 11:06:55;;;;;;;1.30;1.20;;;25.90;95.40;;;;;;5074781;28;20731;-71
2023/08/25 11:09:21;;;;;;;1.10;1.00;;;;;;;;;;5074810;28;20438;-73
2023/08/25 11:11:55;;;;;;;4.53;1.43;;;26.60;94.90;;;;;;5074703;28;20806;-73
2023/08/25 11:14:36;;;;;;;2.27;1.53;;;26.60;94.20;;;;;;5074475;28;20391;-73
2023/08/25 11:17:04;;;;;;;3.27;2.10;;;26.60;96.40;;;;;;5074593;28;20387;-73
2023/08/25 11:19:32;;;;;;;2.43;1.83;;;26.50;94.10;;;;;;5074559;28;20818;-73
2023/08/25 11:22:05;;;;;;;1.70;1.60;;;26.50;94.40;;;;;;5074404;28;20402;-72
2023/08/25 11:24:32;;;;;;;1.80;1.70;;;;;;;;;;5074345;28;20447;-71
2023/08/25 11:27:11;;;;;;;1.57;1.43;;;26.20;93.10;;;;;;5074548;28;20431;-72
2023/08/25 11:29:44;;;;;;;1.47;1.37;;;26.00;94.10;;;;;;5074355;28;20403;-73
2023/08/25 11:32:13;;;;;;;1.37;1.27;;;26.10;94.40;;;;;;5074300;28;20419;-71
2023/08/25 11:34:39;;;;;;;1.83;1.63;;;26.10;93.90;;;;;;5074127;28;20747;-73
2023/08/25 11:37:06;;;;;;;1.40;1.17;;;25.90;93.50;;;;;;5074298;28;20415;-73
2023/08/25 11:39:31;;;;;;;5.80;2.30;;;26.00;94.60;;;;;;5074254;28;20512;-72
2023/08/25 11:41:57;;;;;;;4.40;2.10;;;26.00;94.00;;;;;;5074023;28;20461;-72
2023/08/25 11:44:24;;;;;;;1.30;1.20;;;25.80;94.30;;;;;;5073711;28;20437;-73
2023/08/25 11:46:52;;;;;;;2.07;1.40;;;25.50;94.60;;;;;;5074072;28;20642;-71
2023/08/25 11:49:20;;;;;;;4.73;1.97;;;;;;;;;;5073785;28;20435;-71
2023/08/25 11:51:48;;;;;;;1.47;1.37;;;24.80;99.90;;;;;;5073699;28;20394;-73
2023/08/25 11:54:14;;;;;;;2.53;2.33;;;24.90;95.50;;;;;;5073394;28;20498;-73
2023/08/25 11:56:47;;;;;;;1.60;1.50;;;24.90;95.60;;;;;;5074032;28;20440;-73
2023/08/25 11:59:17;;;;;;;1.10;1.00;;;24.90;96.00;;;;;;5074018;28;20596;-73
2023/08/25 12:01:43;;;;;;;4.93;4.53;;;;;;;;;;5073733;28;20491;-71
2023/08/25 12:04:25;;;;;;;1.80;1.70;;;24.80;96.10;;;;;;5073683;28;20524;-72
2023/08/25 12:06:55;;;;;;;3.83;2.53;;;24.60;97.70;;;;;;5073620;28;20426;-72
2023/08/25 12:09:23;;;;;;;1.00;1.00;;;24.40;97.90;;;;;;5073692;28;20413;-71
2023/08/25 12:11:50;;;;;;;1.80;1.70;;;24.50;97.30;;;;;;5073485;28;20409;-73
2023/08/25 12:14:28;;;;;;;1.60;1.50;;;24.60;97.10;;;;;;5073483;28;20469;-72
2023/08/25 12:16:58;;;;;;;2.10;1.43;;;24.80;96.50;;;;;;5073626;28;20396;-73
2023/08/25 12:19:26;;;;;;;1.07;1.00;;;24.90;95.90;;;;;;5073504;28;20444;-73
2023/08/25 12:21:56;;;;;;;1.10;1.10;;;24.70;96.00;;;;;;5073364;28;20500;-73
2023/08/25 12:24:23;;;;;;;2.07;1.50;;;24.40;99.90;;;;;;5073252;28;20445;-72
2023/08/25 12:26:50;;;;;;;1.60;1.50;;;24.40;96.10;;;;;;5073570;28;20396;-73
2023/08/25 12:29:16;;;;;;;1.90;1.60;;;24.30;96.20;;;;;;5073469;28;20413;-73
2023/08/25 12:31:42;;;;;;;1.67;1.13;;;24.40;96.70;;;;;;5073234;28;20477;-72
2023/08/25 12:34:08;;;;;;;1.13;1.13;;;24.70;97.80;;;;;;5073126;28;20439;-72
2023/08/25 12:36:35;;;;;;;2.10;1.87;;;;;;;;;;5073367;28;20386;-72
2023/08/25 12:39:03;;;;;;;2.10;1.80;;;25.00;95.30;;;;;;5073225;28;20608;-73
2023/08/25 12:41:29;;;;;;;1.20;1.10;;;25.20;95.90;;;;;;5073307;28;20447;-73
2023/08/25 12:43:54;;;;;;;2.03;1.30;;;25.40;96.50;;;;;;5071721;28;20880;-73
2023/08/25 12:46:22;;;;;;;2.43;1.53;;;25.60;94.60;;;;;;5073641;28;20496;-71
2023/08/25 12:48:48;;;;;;;0.90;0.87;;;;;;;;;;5073052;28;20179;-72
2023/08/25 12:51:15;;;;;;;5.43;1.30;;;25.70;95.60;;;;;;5073322;28;20397;-71
2023/08/25 12:53:41;;;;;;;1.40;1.30;;;25.80;93.80;;;;;;5073217;28;20394;-73
2023/08/25 12:56:08;;;;;;;1.70;1.60;;;25.80;94.20;;;;;;5073112;28;20411;-72
2023/08/25 12:58:34;;;;;;;1.60;1.50;;;;;;;;;;5073176;28;20173;-72
2023/08/25 13:01:03;;;;;;;1.20;1.00;;;25.70;99.90;;;;;;5073440;28;20407;-72